sensor_id;sensor_type;location;lat;lon;timestamp;pressure;altitude;pressure_sealevel;temperature;humidity
39309;BME280;26019;47.510;19.122;2023-10-19T00:03:30;99807.84;;;8.22;100.00
39309;BME280;26019;47.510;19.122;2023-10-19T00:13:32;99799.97;;;8.47;100.00
39309;BME280;26019;47.510;19.122;2023-10-19T00:23:38;99784.59;;;8.39;100.00
39309;BME280;26019;47.510;19.122;2023-10-19T00:33:41;99773.38;;;8.52;100.00
39309;BME280;26019;47.510;19.122;2023-10-19T00:43:45;99760.44;;;8.60;100.00
39309;BME280;26019;47.510;19.122;2023-10-19T00:53:50;99757.00;;;8.63;100.00
39309;BME280;26019;47.510;19.122;2023-10-19T01:03:53;99742.34;;;8.68;100.00
39309;BME280;26019;47.510;19.122;2023-10-19T01:13:57;99722.63;;;8.67;100.00
39309;BME280;26019;47.510;19.122;2023-10-19T01:24:01;99717.41;;;8.73;100.00
39309;BME280;26019;47.510;19.122;2023-10-19T01:34:03;99710.63;;;8.63;100.00
39309;BME280;26019;47.510;19.122;2023-10-19T01:44:07;99690.09;;;8.57;100.00
39309;BME280;26019;47.510;19.122;2023-10-19T01:54:10;99677.34;;;8.33;100.00
39309;BME280;26019;47.510;19.122;2023-10-19T02:04:14;99661.88;;;8.35;100.00
39309;BME280;26019;47.510;19.122;2023-10-19T02:14:17;99661.97;;;8.21;100.00
39309;BME280;26019;47.510;19.122;2023-10-19T02:24:20;99650.91;;;8.11;100.00
39309;BME280;26019;47.510;19.122;2023-10-19T02:34:22;99635.63;;;7.78;100.00
39309;BME280;26019;47.510;19.122;2023-10-19T02:44:25;99628.72;;;7.91;100.00
39309;BME280;26019;47.510;19.122;2023-10-19T02:54:27;99618.50;;;7.79;100.00
39309;BME280;26019;47.510;19.122;2023-10-19T03:04:35;99595.31;;;7.85;100.00
39309;BME280;26019;47.510;19.122;2023-10-19T03:14:37;99585.09;;;7.74;100.00
39309;BME280;26019;47.510;19.122;2023-10-19T03:24:39;99560.34;;;7.56;100.00
39309;BME280;26019;47.510;19.122;2023-10-19T03:34:49;99548.56;;;7.09;100.00
39309;BME280;26019;47.510;19.122;2023-10-19T03:44:52;99543.31;;;7.37;100.00
39309;BME280;26019;47.510;19.122;2023-10-19T03:55:01;99523.69;;;7.23;100.00
39309;BME280;26019;47.510;19.122;2023-10-19T04:05:12;99530.44;;;7.37;100.00
39309;BME280;26019;47.510;19.122;2023-10-19T04:15:16;99509.94;;;7.26;100.00
39309;BME280;26019;47.510;19.122;2023-10-19T04:25:19;99495.41;;;7.23;100.00
39309;BME280;26019;47.510;19.122;2023-10-19T04:35:21;99475.59;;;7.41;100.00
39309;BME280;26019;47.510;19.122;2023-10-19T04:45:24;99456.09;;;7.06;100.00
39309;BME280;26019;47.510;19.122;2023-10-19T04:55:30;99467.22;;;7.08;100.00
39309;BME280;26019;47.510;19.122;2023-10-19T05:05:32;99450.19;;;6.86;100.00
39309;BME280;26019;47.510;19.122;2023-10-19T05:15:41;99450.91;;;7.15;100.00
39309;BME280;26019;47.510;19.122;2023-10-19T05:25:52;99462.75;;;7.38;100.00
39309;BME280;26019;47.510;19.122;2023-10-19T05:36:01;99458.66;;;7.10;100.00
39309;BME280;26019;47.510;19.122;2023-10-19T05:46:10;99458.50;;;7.30;100.00
39309;BME280;26019;47.510;19.122;2023-10-19T05:56:23;99453.31;;;7.40;100.00
39309;BME280;26019;47.510;19.122;2023-10-19T06:06:31;99453.31;;;7.41;100.00
39309;BME280;26019;47.510;19.122;2023-10-19T06:16:33;99456.56;;;7.63;100.00
39309;BME280;26019;47.510;19.122;2023-10-19T06:26:35;99436.91;;;7.59;100.00
39309;BME280;26019;47.510;19.122;2023-10-19T06:36:38;99417.91;;;7.73;100.00
39309;BME280;26019;47.510;19.122;2023-10-19T06:46:40;99410.88;;;7.95;100.00
39309;BME280;26019;47.510;19.122;2023-10-19T06:56:45;99438.09;;;8.16;100.00
39309;BME280;26019;47.510;19.122;2023-10-19T07:06:47;99402.88;;;8.20;100.00
39309;BME280;26019;47.510;19.122;2023-10-19T07:16:50;99405.16;;;8.46;100.00
39309;BME280;26019;47.510;19.122;2023-10-19T07:26:55;99391.22;;;8.66;100.00
39309;BME280;26019;47.510;19.122;2023-10-19T07:37:34;99379.19;;;8.66;100.00
39309;BME280;26019;47.510;19.122;2023-10-19T07:47:38;99370.09;;;9.03;100.00
39309;BME280;26019;47.510;19.122;2023-10-19T07:57:42;99365.59;;;9.16;100.00
39309;BME280;26019;47.510;19.122;2023-10-19T08:07:44;99341.25;;;9.36;100.00
39309;BME280;26019;47.510;19.122;2023-10-19T08:17:51;99333.94;;;9.60;100.00
39309;BME280;26019;47.510;19.122;2023-10-19T08:27:55;99321.09;;;10.05;100.00
39309;BME280;26019;47.510;19.122;2023-10-19T08:38:00;99315.59;;;10.21;100.00
39309;BME280;26019;47.510;19.122;2023-10-19T08:48:02;99311.81;;;10.39;100.00
39309;BME280;26019;47.510;19.122;2023-10-19T08:58:04;99291.44;;;11.02;100.00
39309;BME280;26019;47.510;19.122;2023-10-19T09:08:07;99284.38;;;11.43;100.00
39309;BME280;26019;47.510;19.122;2023-10-19T09:18:17;99275.16;;;11.66;100.00
39309;BME280;26019;47.510;19.122;2023-10-19T09:28:21;99269.75;;;13.19;100.00
39309;BME280;26019;47.510;19.122;2023-10-19T09:38:26;99267.78;;;13.77;100.00
39309;BME280;26019;47.510;19.122;2023-10-19T09:48:28;99267.19;;;14.62;100.00
39309;BME280;26019;47.510;19.122;2023-10-19T09:58:36;99243.50;;;13.78;100.00
39309;BME280;26019;47.510;19.122;2023-10-19T10:08:47;99230.28;;;14.54;100.00
39309;BME280;26019;47.510;19.122;2023-10-19T10:18:54;99193.88;;;15.17;100.00
39309;BME280;26019;47.510;19.122;2023-10-19T10:29:12;99171.09;;;15.62;100.00
39309;BME280;26019;47.510;19.122;2023-10-19T10:39:25;99154.75;;;15.00;100.00
39309;BME280;26019;47.510;19.122;2023-10-19T10:49:30;99150.56;;;15.37;100.00
39309;BME280;26019;47.510;19.122;2023-10-19T10:59:32;99112.28;;;15.39;100.00
39309;BME280;26019;47.510;19.122;2023-10-19T11:09:43;99104.88;;;16.24;100.00
39309;BME280;26019;47.510;19.122;2023-10-19T11:19:46;99089.47;;;22.13;56.71
39309;BME280;26019;47.510;19.122;2023-10-19T11:29:57;99082.75;;;23.03;53.43
39309;BME280;26019;47.510;19.122;2023-10-19T11:40:00;99070.41;;;21.11;56.99
39309;BME280;26019;47.510;19.122;2023-10-19T11:50:05;99052.63;;;19.27;69.13
39309;BME280;26019;47.510;19.122;2023-10-19T12:00:07;99045.47;;;19.85;71.63
39309;BME280;26019;47.510;19.122;2023-10-19T12:10:15;99030.13;;;24.45;46.97
39309;BME280;26019;47.510;19.122;2023-10-19T12:20:17;99008.03;;;25.08;46.13
39309;BME280;26019;47.510;19.122;2023-10-19T12:30:24;98991.25;;;24.57;44.88
39309;BME280;26019;47.510;19.122;2023-10-19T12:40:29;98988.56;;;18.31;77.85
39309;BME280;26019;47.510;19.122;2023-10-19T12:50:34;98979.16;;;17.52;91.87
39309;BME280;26019;47.510;19.122;2023-10-19T13:00:37;98960.88;;;17.82;88.34
39309;BME280;26019;47.510;19.122;2023-10-19T13:10:47;98954.16;;;17.15;95.52
39309;BME280;26019;47.510;19.122;2023-10-19T13:20:51;98939.13;;;19.41;73.98
39309;BME280;26019;47.510;19.122;2023-10-19T13:30:56;98924.66;;;19.08;70.92
39309;BME280;26019;47.510;19.122;2023-10-19T13:40:58;98929.22;;;16.44;100.00
39309;BME280;26019;47.510;19.122;2023-10-19T13:51:00;98917.28;;;16.40;100.00
39309;BME280;26019;47.510;19.122;2023-10-19T14:01:07;98918.00;;;15.19;100.00
39309;BME280;26019;47.510;19.122;2023-10-19T14:11:11;98914.06;;;14.53;100.00
39309;BME280;26019;47.510;19.122;2023-10-19T14:21:16;98902.31;;;13.83;100.00
39309;BME280;26019;47.510;19.122;2023-10-19T14:31:19;98889.84;;;13.26;100.00
39309;BME280;26019;47.510;19.122;2023-10-19T14:41:21;98873.59;;;13.00;100.00
39309;BME280;26019;47.510;19.122;2023-10-19T14:51:24;98876.66;;;12.88;100.00
39309;BME280;26019;47.510;19.122;2023-10-19T15:01:26;98867.91;;;12.91;100.00
39309;BME280;26019;47.510;19.122;2023-10-19T15:11:29;98861.63;;;12.96;100.00
39309;BME280;26019;47.510;19.122;2023-10-19T15:21:30;98852.91;;;12.77;100.00
39309;BME280;26019;47.510;19.122;2023-10-19T15:31:32;98836.91;;;12.65;100.00
39309;BME280;26019;47.510;19.122;2023-10-19T15:41:34;98829.44;;;12.58;100.00
39309;BME280;26019;47.510;19.122;2023-10-19T15:51:47;98818.81;;;12.42;100.00
39309;BME280;26019;47.510;19.122;2023-10-19T16:01:49;98805.00;;;12.41;100.00
39309;BME280;26019;47.510;19.122;2023-10-19T16:11:52;98806.47;;;12.24;100.00
39309;BME280;26019;47.510;19.122;2023-10-19T16:21:57;98801.38;;;12.23;100.00
39309;BME280;26019;47.510;19.122;2023-10-19T16:31:59;98812.75;;;12.19;100.00
39309;BME280;26019;47.510;19.122;2023-10-19T16:42:01;98800.41;;;12.02;100.00
39309;BME280;26019;47.510;19.122;2023-10-19T16:52:06;98787.03;;;11.89;100.00
39309;BME280;26019;47.510;19.122;2023-10-19T17:02:10;98786.38;;;11.82;100.00
39309;BME280;26019;47.510;19.122;2023-10-19T17:12:17;98759.59;;;11.83;100.00
39309;BME280;26019;47.510;19.122;2023-10-19T17:22:24;98754.22;;;11.89;100.00
39309;BME280;26019;47.510;19.122;2023-10-19T17:32:42;98740.25;;;11.93;100.00
39309;BME280;26019;47.510;19.122;2023-10-19T17:42:46;98745.97;;;11.78;100.00
39309;BME280;26019;47.510;19.122;2023-10-19T17:52:49;98722.69;;;11.78;100.00
39309;BME280;26019;47.510;19.122;2023-10-19T18:02:56;98717.91;;;11.67;100.00
39309;BME280;26019;47.510;19.122;2023-10-19T18:13:00;98711.50;;;11.54;100.00
39309;BME280;26019;47.510;19.122;2023-10-19T18:23:11;98698.03;;;11.44;100.00
39309;BME280;26019;47.510;19.122;2023-10-19T18:33:15;98704.47;;;11.32;100.00
39309;BME280;26019;47.510;19.122;2023-10-19T18:43:19;98692.00;;;11.19;100.00
39309;BME280;26019;47.510;19.122;2023-10-19T18:53:22;98669.91;;;10.84;100.00
39309;BME280;26019;47.510;19.122;2023-10-19T19:03:25;98660.94;;;10.69;100.00
39309;BME280;26019;47.510;19.122;2023-10-19T19:13:29;98660.75;;;10.48;100.00
39309;BME280;26019;47.510;19.122;2023-10-19T19:23:37;98669.19;;;10.25;100.00
39309;BME280;26019;47.510;19.122;2023-10-19T19:33:42;98657.53;;;10.11;100.00
39309;BME280;26019;47.510;19.122;2023-10-19T19:43:46;98647.53;;;10.00;100.00
39309;BME280;26019;47.510;19.122;2023-10-19T19:53:49;98646.41;;;9.81;100.00
39309;BME280;26019;47.510;19.122;2023-10-19T20:03:55;98663.47;;;10.15;100.00
39309;BME280;26019;47.510;19.122;2023-10-19T20:13:59;98652.06;;;10.22;100.00
39309;BME280;26019;47.510;19.122;2023-10-19T20:24:01;98653.28;;;10.39;100.00
39309;BME280;26019;47.510;19.122;2023-10-19T20:34:04;98644.81;;;10.34;100.00
39309;BME280;26019;47.510;19.122;2023-10-19T20:44:10;98620.28;;;10.20;100.00
39309;BME280;26019;47.510;19.122;2023-10-19T20:54:12;98629.91;;;10.15;100.00
39309;BME280;26019;47.510;19.122;2023-10-19T21:04:14;98592.16;;;10.11;100.00
39309;BME280;26019;47.510;19.122;2023-10-19T21:14:18;98591.00;;;10.21;100.00
39309;BME280;26019;47.510;19.122;2023-10-19T21:24:20;98587.09;;;10.35;100.00
39309;BME280;26019;47.510;19.122;2023-10-19T21:34:22;98573.38;;;10.34;100.00
39309;BME280;26019;47.510;19.122;2023-10-19T21:44:26;98568.88;;;10.41;100.00
39309;BME280;26019;47.510;19.122;2023-10-19T21:54:31;98546.66;;;10.60;100.00
39309;BME280;26019;47.510;19.122;2023-10-19T22:04:34;98544.44;;;10.51;100.00
39309;BME280;26019;47.510;19.122;2023-10-19T22:14:37;98535.41;;;10.63;100.00
39309;BME280;26019;47.510;19.122;2023-10-19T22:24:41;98535.13;;;10.71;100.00
39309;BME280;26019;47.510;19.122;2023-10-19T22:34:46;98529.25;;;10.67;100.00
39309;BME280;26019;47.510;19.122;2023-10-19T22:44:48;98501.41;;;10.50;100.00
39309;BME280;26019;47.510;19.122;2023-10-19T22:54:52;98475.50;;;10.53;100.00
39309;BME280;26019;47.510;19.122;2023-10-19T23:04:55;98483.47;;;10.71;100.00
39309;BME280;26019;47.510;19.122;2023-10-19T23:14:57;98499.13;;;10.66;100.00
39309;BME280;26019;47.510;19.122;2023-10-19T23:24:59;98498.78;;;10.52;100.00
39309;BME280;26019;47.510;19.122;2023-10-19T23:35:09;98475.59;;;10.50;100.00
39309;BME280;26019;47.510;19.122;2023-10-19T23:45:11;98475.91;;;10.41;100.00
39309;BME280;26019;47.510;19.122;2023-10-19T23:55:14;98464.81;;;10.37;100.00
